BAW4L TAPA-TKPK
Flight info
| Callsign | BAW4L |
|---|---|
| Flight time | 0h 23m |
| Altitude | 10000 |
| Route | ANU G633 SKB |
| Aircraft | B772/H-SDE2E3FGHIJ5LORVWXY/LB1D1 |
Departure
| Time | 2026-04-16 04:47 |
|---|---|
| Airport | V. C. Bird International Airport (TAPA) |
Arrival
| Time | 2026-04-16 05:10 |
|---|---|
| Airport | Robert L. Bradshaw International Airport (TKPK) |
| Time | Latitude | Longitude | Altitude | Speed | Heading |
|---|---|---|---|---|---|
| 2026-04-16 04:28 | 17.14128 | -61.78972 | 68 ft | 0 kts | 328° |
| 2026-04-16 04:39 | 17.14110 | -61.78959 | 58 ft | 4 kts | 317° |
| 2026-04-16 04:39 | 17.14093 | -61.78938 | 58 ft | 4 kts | 295° |
| 2026-04-16 04:39 | 17.14086 | -61.78911 | 58 ft | 4 kts | 267° |
| 2026-04-16 04:39 | 17.14092 | -61.78885 | 58 ft | 4 kts | 240° |
| 2026-04-16 04:40 | 17.14094 | -61.78880 | 58 ft | 0 kts | 238° |
| 2026-04-16 04:42 | 17.14087 | -61.78893 | 68 ft | 11 kts | 238° |
| 2026-04-16 04:42 | 17.14036 | -61.78979 | 60 ft | 14 kts | 238° |
| 2026-04-16 04:42 | 17.13985 | -61.79066 | 59 ft | 15 kts | 238° |
| 2026-04-16 04:43 | 17.13900 | -61.79123 | 62 ft | 15 kts | 186° |
| 2026-04-16 04:43 | 17.13800 | -61.79100 | 64 ft | 15 kts | 191° |
| 2026-04-16 04:43 | 17.13731 | -61.79177 | 71 ft | 15 kts | 237° |
| 2026-04-16 04:43 | 17.13646 | -61.79316 | 64 ft | 38 kts | 237° |
| 2026-04-16 04:44 | 17.13503 | -61.79548 | 66 ft | 38 kts | 237° |
| 2026-04-16 04:44 | 17.13369 | -61.79779 | 64 ft | 37 kts | 239° |
| 2026-04-16 04:44 | 17.13237 | -61.80008 | 61 ft | 36 kts | 238° |
| 2026-04-16 04:44 | 17.13108 | -61.80229 | 63 ft | 35 kts | 239° |
| 2026-04-16 04:45 | 17.12985 | -61.80435 | 67 ft | 32 kts | 231° |
| 2026-04-16 04:45 | 17.12868 | -61.80532 | 68 ft | 6 kts | 251° |
| 2026-04-16 04:45 | 17.12892 | -61.80548 | 71 ft | 5 kts | 19° |
| 2026-04-16 04:45 | 17.12970 | -61.80465 | 65 ft | 34 kts | 59° |
| 2026-04-16 04:46 | 17.12992 | -61.80426 | 67 ft | 0 kts | 58° |
| 2026-04-16 04:46 | 17.12993 | -61.80424 | 67 ft | 0 kts | 58° |
| 2026-04-16 04:46 | 17.13023 | -61.80374 | 66 ft | 43 kts | 58° |
| 2026-04-16 04:46 | 17.13425 | -61.79684 | 63 ft | 174 kts | 58° |
| 2026-04-16 04:47 | 17.14137 | -61.78418 | 1049 ft | 214 kts | 63° |
| 2026-04-16 04:47 | 17.15093 | -61.77192 | 2871 ft | 225 kts | 42° |
| 2026-04-16 04:47 | 17.16580 | -61.76455 | 4030 ft | 251 kts | 15° |
| 2026-04-16 04:47 | 17.18411 | -61.76553 | 4792 ft | 279 kts | 346° |
| 2026-04-16 04:48 | 17.20125 | -61.77578 | 5052 ft | 292 kts | 318° |
| 2026-04-16 04:48 | 17.21167 | -61.79352 | 5045 ft | 294 kts | 285° |
| 2026-04-16 04:48 | 17.21385 | -61.81490 | 5050 ft | 291 kts | 269° |
| 2026-04-16 04:48 | 17.21351 | -61.83576 | 5056 ft | 290 kts | 267° |
| 2026-04-16 04:49 | 17.21285 | -61.85680 | 5053 ft | 289 kts | 266° |
| 2026-04-16 04:49 | 17.21222 | -61.87777 | 5027 ft | 288 kts | 266° |
| 2026-04-16 04:49 | 17.21171 | -61.89865 | 5034 ft | 287 kts | 267° |
| 2026-04-16 04:49 | 17.21130 | -61.91949 | 5033 ft | 288 kts | 267° |
| 2026-04-16 04:50 | 17.21098 | -61.94054 | 5030 ft | 290 kts | 268° |
| 2026-04-16 04:50 | 17.21072 | -61.96159 | 5031 ft | 289 kts | 268° |
| 2026-04-16 04:50 | 17.21051 | -61.98259 | 5019 ft | 288 kts | 268° |
| 2026-04-16 04:50 | 17.21034 | -62.00311 | 5009 ft | 275 kts | 268° |
| 2026-04-16 04:51 | 17.21019 | -62.02262 | 5005 ft | 261 kts | 268° |
| 2026-04-16 04:51 | 17.21006 | -62.04111 | 5005 ft | 247 kts | 268° |
| 2026-04-16 04:51 | 17.20994 | -62.05905 | 5018 ft | 245 kts | 268° |
| 2026-04-16 04:51 | 17.20980 | -62.07676 | 5017 ft | 244 kts | 268° |
| 2026-04-16 04:52 | 17.20966 | -62.09452 | 5012 ft | 244 kts | 268° |
| 2026-04-16 04:52 | 17.20953 | -62.11213 | 5016 ft | 239 kts | 268° |
| 2026-04-16 04:52 | 17.20941 | -62.12913 | 5016 ft | 236 kts | 268° |
| 2026-04-16 04:52 | 17.20929 | -62.14623 | 5017 ft | 235 kts | 268° |
| 2026-04-16 04:53 | 17.20916 | -62.16326 | 5023 ft | 235 kts | 268° |
| 2026-04-16 04:53 | 17.20903 | -62.18037 | 5031 ft | 235 kts | 268° |
| 2026-04-16 04:53 | 17.20890 | -62.19748 | 5038 ft | 236 kts | 268° |
| 2026-04-16 04:53 | 17.20877 | -62.21467 | 5027 ft | 237 kts | 268° |
| 2026-04-16 04:54 | 17.20864 | -62.23188 | 5025 ft | 237 kts | 268° |
| 2026-04-16 04:54 | 17.20850 | -62.24914 | 5017 ft | 237 kts | 268° |
| 2026-04-16 04:54 | 17.20837 | -62.26633 | 5026 ft | 236 kts | 268° |
| 2026-04-16 04:54 | 17.20824 | -62.28345 | 5031 ft | 236 kts | 268° |
| 2026-04-16 04:55 | 17.20810 | -62.30065 | 5028 ft | 237 kts | 268° |
| 2026-04-16 04:55 | 17.20797 | -62.31788 | 5032 ft | 237 kts | 268° |
| 2026-04-16 04:55 | 17.20783 | -62.33517 | 5032 ft | 239 kts | 268° |
| 2026-04-16 04:55 | 17.20769 | -62.35251 | 5034 ft | 239 kts | 269° |
| 2026-04-16 04:56 | 17.20754 | -62.36995 | 5024 ft | 239 kts | 268° |
| 2026-04-16 04:56 | 17.20740 | -62.38730 | 5026 ft | 238 kts | 268° |
| 2026-04-16 04:56 | 17.20704 | -62.40457 | 5027 ft | 235 kts | 263° |
| 2026-04-16 04:56 | 17.20536 | -62.41571 | 5026 ft | 234 kts | 256° |
| 2026-04-16 04:57 | 17.20168 | -62.43223 | 5018 ft | 233 kts | 254° |
| 2026-04-16 04:57 | 17.19781 | -62.44859 | 5020 ft | 232 kts | 254° |
| 2026-04-16 04:57 | 17.19273 | -62.47027 | 5019 ft | 233 kts | 254° |
| 2026-04-16 04:57 | 17.18889 | -62.48696 | 5030 ft | 237 kts | 255° |
| 2026-04-16 04:58 | 17.18632 | -62.49826 | 5032 ft | 237 kts | 255° |
| 2026-04-16 04:58 | 17.18258 | -62.51489 | 5023 ft | 234 kts | 254° |
| 2026-04-16 04:58 | 17.17886 | -62.53151 | 5027 ft | 233 kts | 255° |
| 2026-04-16 04:58 | 17.17521 | -62.54796 | 5026 ft | 232 kts | 255° |
| 2026-04-16 04:59 | 17.17157 | -62.56439 | 5023 ft | 232 kts | 255° |
| 2026-04-16 04:59 | 17.16794 | -62.58080 | 5016 ft | 231 kts | 255° |
| 2026-04-16 04:59 | 17.16438 | -62.59691 | 5026 ft | 230 kts | 254° |
| 2026-04-16 04:59 | 17.16069 | -62.61360 | 5026 ft | 236 kts | 255° |
| 2026-04-16 05:00 | 17.15704 | -62.63010 | 5027 ft | 235 kts | 255° |
| 2026-04-16 05:00 | 17.15336 | -62.64677 | 5003 ft | 235 kts | 255° |
| 2026-04-16 05:00 | 17.14969 | -62.66338 | 5014 ft | 234 kts | 255° |
| 2026-04-16 05:00 | 17.14603 | -62.67994 | 5010 ft | 233 kts | 255° |
| 2026-04-16 05:01 | 17.14239 | -62.69643 | 5019 ft | 232 kts | 255° |
| 2026-04-16 05:01 | 17.13876 | -62.71285 | 5025 ft | 231 kts | 255° |
| 2026-04-16 05:01 | 17.13516 | -62.72912 | 5068 ft | 232 kts | 255° |
| 2026-04-16 05:01 | 17.13150 | -62.74567 | 5019 ft | 234 kts | 255° |
| 2026-04-16 05:02 | 17.12791 | -62.76192 | 5010 ft | 223 kts | 254° |
| 2026-04-16 05:02 | 17.12448 | -62.77746 | 5017 ft | 222 kts | 254° |
| 2026-04-16 05:02 | 17.12104 | -62.79296 | 5010 ft | 214 kts | 255° |
| 2026-04-16 05:02 | 17.11773 | -62.80790 | 5013 ft | 208 kts | 255° |
| 2026-04-16 05:03 | 17.11449 | -62.82254 | 5009 ft | 208 kts | 253° |
| 2026-04-16 05:03 | 17.11168 | -62.83762 | 4951 ft | 216 kts | 266° |
| 2026-04-16 05:03 | 17.11591 | -62.85249 | 4744 ft | 216 kts | 309° |
| 2026-04-16 05:04 | 17.13917 | -62.86966 | 4322 ft | 196 kts | 330° |
| 2026-04-16 05:04 | 17.15029 | -62.87722 | 4143 ft | 189 kts | 331° |
| 2026-04-16 05:04 | 17.16130 | -62.88472 | 3967 ft | 187 kts | 330° |
| 2026-04-16 05:04 | 17.17204 | -62.89206 | 3861 ft | 184 kts | 330° |
| 2026-04-16 05:05 | 17.18310 | -62.89849 | 3769 ft | 179 kts | 349° |
| 2026-04-16 05:05 | 17.19444 | -62.89742 | 3694 ft | 159 kts | 32° |
| 2026-04-16 05:05 | 17.20241 | -62.89002 | 3652 ft | 151 kts | 58° |
| 2026-04-16 05:05 | 17.20845 | -62.88093 | 3603 ft | 152 kts | 60° |
| 2026-04-16 05:06 | 17.21426 | -62.87185 | 3529 ft | 150 kts | 60° |
| 2026-04-16 05:06 | 17.22002 | -62.86279 | 3465 ft | 149 kts | 61° |
| 2026-04-16 05:06 | 17.22586 | -62.85357 | 3327 ft | 154 kts | 61° |
| 2026-04-16 05:06 | 17.23171 | -62.84435 | 3122 ft | 148 kts | 61° |
| 2026-04-16 05:07 | 17.23735 | -62.83544 | 2930 ft | 147 kts | 61° |
| 2026-04-16 05:07 | 17.24299 | -62.82652 | 2710 ft | 146 kts | 61° |
| 2026-04-16 05:07 | 17.24859 | -62.81766 | 2488 ft | 147 kts | 60° |
| 2026-04-16 05:07 | 17.25422 | -62.80877 | 2277 ft | 146 kts | 60° |
| 2026-04-16 05:08 | 17.25981 | -62.79996 | 2063 ft | 145 kts | 61° |
| 2026-04-16 05:08 | 17.26539 | -62.79113 | 1841 ft | 146 kts | 61° |
| 2026-04-16 05:08 | 17.27092 | -62.78237 | 1602 ft | 142 kts | 60° |
| 2026-04-16 05:08 | 17.27646 | -62.77363 | 1390 ft | 146 kts | 61° |
| 2026-04-16 05:09 | 17.28205 | -62.76478 | 1191 ft | 145 kts | 60° |
| 2026-04-16 05:09 | 17.28760 | -62.75600 | 962 ft | 143 kts | 60° |
| 2026-04-16 05:09 | 17.29310 | -62.74731 | 746 ft | 145 kts | 60° |
| 2026-04-16 05:09 | 17.29819 | -62.73863 | 529 ft | 134 kts | 59° |
| 2026-04-16 05:10 | 17.30333 | -62.73102 | 288 ft | 125 kts | 58° |
| 2026-04-16 05:10 | 17.30807 | -62.72360 | 200 ft | 113 kts | 58° |
| 2026-04-16 05:10 | 17.31161 | -62.71805 | 175 ft | 66 kts | 57° |
| 2026-04-16 05:10 | 17.31315 | -62.71562 | 172 ft | 19 kts | 56° |
| 2026-04-16 05:11 | 17.31404 | -62.71422 | 170 ft | 24 kts | 57° |
| 2026-04-16 05:11 | 17.31414 | -62.71394 | 170 ft | 2 kts | 96° |
| 2026-04-16 05:11 | 17.31400 | -62.71385 | 170 ft | 6 kts | 169° |
| 2026-04-16 05:11 | 17.31311 | -62.71422 | 165 ft | 15 kts | 210° |
| 2026-04-16 05:12 | 17.31296 | -62.71431 | 165 ft | 0 kts | 212° |
| 2026-04-16 05:12 | 17.31258 | -62.71456 | 164 ft | 11 kts | 213° |
| 2026-04-16 05:12 | 17.31205 | -62.71523 | 163 ft | 10 kts | 237° |
| 2026-04-16 05:12 | 17.31179 | -62.71556 | 163 ft | 7 kts | 217° |
| 2026-04-16 05:13 | 17.31134 | -62.71554 | 163 ft | 0 kts | 154° |
| 2026-04-16 05:13 | 17.31124 | -62.71541 | 163 ft | 0 kts | 106° |